Time;durP1;ratioP1;P1;durP2;ratioP2;P2;SDS_P1;SDS_P2;PMS_P1;PMS_P2;Temp;Humidity;BMP_temperature;BMP_pressure;BME280_temperature;BME280_humidity;BME280_pressure;Samples;Min_cycle;Max_cycle;Signal;HPM_P1;HPM_P2
2023/09/02 00:01:18;;;;;;;8.50;4.93;;;;;;;11.75;92.80;101674.63;5003104;28;20050;-84
2023/09/02 00:03:44;;;;;;;6.30;4.00;;;;;;;11.74;92.82;101670.31;4992550;28;20076;-84
2023/09/02 00:06:10;;;;;;;6.00;4.78;;;;;;;11.72;92.79;101673.28;4988787;28;20064;-82
2023/09/02 00:08:35;;;;;;;7.03;5.38;;;;;;;11.72;92.88;101673.28;5004018;28;20176;-83
2023/09/02 00:11:00;;;;;;;;;;;;;;;11.70;93.03;101672.69;4999312;28;20030;-84
2023/09/02 00:13:26;;;;;;;5.97;3.67;;;;;;;11.68;92.82;101672.16;5008987;28;19921;-84
2023/09/02 00:15:52;;;;;;;6.15;3.78;;;;;;;11.68;92.74;101677.50;5006705;28;20402;-82
2023/09/02 00:18:17;;;;;;;6.78;5.07;;;;;;;11.67;92.48;101681.25;5004293;28;20037;-82
2023/09/02 00:20:43;;;;;;;7.40;4.75;;;;;;;11.67;92.61;101680.47;4973485;28;20038;-85
2023/09/02 00:23:08;;;;;;;7.72;5.40;;;;;;;11.64;92.97;101676.41;5006449;28;20168;-83
2023/09/02 00:25:34;;;;;;;;;;;;;;;11.63;93.37;101673.97;5003098;28;20526;-83
2023/09/02 00:27:59;;;;;;;6.43;4.53;;;;;;;11.59;93.23;101670.19;4984102;28;19913;-85
2023/09/02 00:30:25;;;;;;;5.78;4.72;;;;;;;11.56;93.00;101673.38;4994882;28;20035;-84
2023/09/02 00:32:51;;;;;;;6.93;4.80;;;;;;;11.52;93.20;101678.44;4986817;28;20073;-83
2023/09/02 00:35:16;;;;;;;9.07;6.25;;;;;;;11.49;93.27;101678.94;5003323;28;20042;-84
2023/09/02 00:37:43;;;;;;;7.93;4.93;;;;;;;11.44;92.39;101686.91;5020629;28;20085;-83
2023/09/02 00:40:13;;;;;;;7.65;5.07;;;;;;;11.41;92.76;101679.38;5002946;28;20026;-85
2023/09/02 00:42:40;;;;;;;7.60;4.97;;;;;;;11.38;92.77;101690.59;4975465;28;20034;-84
2023/09/02 00:45:06;;;;;;;7.60;4.93;;;;;;;11.35;93.05;101688.44;5012582;28;20073;-85
2023/09/02 00:47:31;;;;;;;6.45;4.90;;;;;;;11.32;92.55;101686.28;4985559;28;20021;-75
2023/09/02 00:49:58;;;;;;;6.97;4.30;;;;;;;11.29;92.53;101678.72;5009176;28;20034;-79
2023/09/02 00:52:23;;;;;;;;;;;;;;;11.32;92.74;101680.91;5006966;28;20034;-82
2023/09/02 00:54:49;;;;;;;4.03;2.80;;;;;;;11.32;92.93;101684.41;5009753;28;20024;-80
2023/09/02 00:57:15;;;;;;;6.82;4.57;;;;;;;11.33;93.17;101677.16;5006646;28;20037;-80
2023/09/02 00:59:41;;;;;;;6.57;5.47;;;;;;;11.31;93.73;101676.56;5008215;28;20038;-79
2023/09/02 01:02:08;;;;;;;6.53;5.13;;;;;;;11.31;93.72;101681.94;4991927;28;20040;-79
2023/09/02 01:04:34;;;;;;;5.97;4.65;;;;;;;11.28;93.80;101677.91;5005861;28;20495;-81
2023/09/02 01:07:03;;;;;;;7.43;4.70;;;;;;;11.27;93.42;101683.53;5005215;28;20030;-80
2023/09/02 01:09:30;;;;;;;7.72;6.05;;;;;;;11.23;93.73;101685.88;4990092;28;20096;-80
2023/09/02 01:11:56;;;;;;;8.88;5.90;;;;;;;11.23;93.84;101690.44;4995142;28;20486;-82
2023/09/02 01:14:22;;;;;;;7.55;5.15;;;;;;;11.16;93.83;101688.75;4989151;28;20103;-81
2023/09/02 01:16:48;;;;;;;5.88;4.22;;;;;;;11.17;93.64;101693.06;5006593;28;20625;-79
2023/09/02 01:19:17;;;;;;;6.03;4.22;;;;;;;11.16;93.69;101696.78;4972995;28;20045;-79
2023/09/02 01:22:31;;;;;;;6.75;4.72;;;;;;;11.17;93.69;101692.25;4986398;28;20041;-80
2023/09/02 01:25:10;;;;;;;6.25;4.90;;;;;;;11.16;93.91;101688.75;4997438;28;20061;-80
2023/09/02 01:28:00;;;;;;;5.88;4.35;;;;;;;11.14;93.61;101692.75;4979109;28;20065;-80
2023/09/02 01:30:31;;;;;;;6.57;4.65;;;;;;;11.10;93.66;101696.97;5000035;28;20046;-80
2023/09/02 01:32:57;;;;;;;6.47;4.13;;;;;;;11.01;93.35;101699.28;5002066;28;20116;-80
2023/09/02 01:35:32;;;;;;;6.30;4.00;;;;;;;10.97;93.00;101708.06;4990286;28;20112;-80
2023/09/02 01:38:00;;;;;;;8.63;4.55;;;;;;;10.92;92.51;101706.97;4976220;28;20212;-82
2023/09/02 01:40:28;;;;;;;5.70;3.70;;;;;;;10.89;92.04;101707.44;5007184;28;20538;-81
2023/09/02 01:42:58;;;;;;;6.00;4.00;;;;;;;10.87;92.60;101714.13;5005282;28;20034;-81
2023/09/02 01:45:30;;;;;;;7.72;4.07;;;;;;;10.89;92.85;101712.81;5007358;28;20066;-83
2023/09/02 01:47:57;;;;;;;;;;;;;;;10.96;94.28;101717.97;4994155;28;20034;-82
2023/09/02 01:50:30;;;;;;;7.32;4.80;;;;;;;10.92;94.60;101714.19;4992057;28;20395;-81
2023/09/02 01:52:57;;;;;;;6.90;5.05;;;;;;;10.94;94.77;101714.75;4993107;28;20060;-80
2023/09/02 01:55:25;;;;;;;8.63;5.80;;;;;;;10.88;94.10;101716.56;4990113;28;20034;-80
2023/09/02 01:57:54;;;;;;;8.40;5.70;;;;;;;10.81;93.68;101721.28;4990532;28;20506;-80
2023/09/02 02:00:20;;;;;;;8.98;5.32;;;;;;;10.81;93.60;101723.16;4998880;28;20046;-79
2023/09/02 02:02:49;;;;;;;7.88;5.43;;;;;;;10.79;93.94;101728.75;4992901;28;20084;-80
2023/09/02 02:05:18;;;;;;;10.07;5.38;;;;;;;10.78;94.06;101731.69;4988271;28;20096;-80
2023/09/02 02:07:48;;;;;;;12.60;5.40;;;;;;;10.76;93.96;101728.44;4969207;28;20435;-78
2023/09/02 02:10:16;;;;;;;6.28;4.78;;;;;;;10.73;93.82;101729.75;4984845;28;20030;-79
2023/09/02 02:12:42;;;;;;;7.00;5.43;;;;;;;10.69;93.41;101728.59;4971373;28;20037;-80
2023/09/02 02:15:12;;;;;;;7.03;5.20;;;;;;;10.64;93.75;101725.88;4989426;28;20034;-79
2023/09/02 02:17:41;;;;;;;5.93;4.78;;;;;;;10.57;93.71;101727.91;4989990;28;20040;-79
2023/09/02 02:20:11;;;;;;;5.05;3.90;;;;;;;10.52;93.57;101723.28;4973060;28;20041;-80
2023/09/02 02:22:38;;;;;;;6.20;4.40;;;;;;;10.48;93.68;101727.50;5002865;28;20084;-80
2023/09/02 02:25:04;;;;;;;8.38;4.07;;;;;;;10.44;93.73;101729.06;5003503;28;20042;-79
2023/09/02 02:27:30;;;;;;;4.82;3.97;;;;;;;10.40;93.27;101725.22;4986354;28;20398;-79
2023/09/02 02:29:57;;;;;;;6.47;4.43;;;;;;;10.36;93.05;101724.94;4987541;28;20040;-78
2023/09/02 02:32:23;;;;;;;5.05;4.32;;;;;;;10.35;93.02;101725.13;4985259;28;20041;-81
2023/09/02 02:34:49;;;;;;;6.65;5.15;;;;;;;10.32;92.94;101723.78;5004713;28;20061;-78
2023/09/02 02:37:15;;;;;;;5.22;3.72;;;;;;;10.28;93.05;101727.97;5002490;28;20107;-78
2023/09/02 02:39:40;;;;;;;8.25;4.63;;;;;;;10.25;92.96;101733.84;5003169;28;20331;-79
2023/09/02 02:42:07;;;;;;;6.32;4.20;;;;;;;10.25;92.97;101743.72;4999789;28;20030;-80
2023/09/02 02:44:34;;;;;;;5.97;3.70;;;;;;;10.21;92.80;101732.66;5002743;28;20486;-78
2023/09/02 02:46:59;;;;;;;6.03;4.07;;;;;;;10.19;92.58;101739.31;4987213;28;20033;-79
2023/09/02 02:49:25;;;;;;;6.22;4.78;;;;;;;10.19;92.90;101736.63;4988675;28;20041;-79
2023/09/02 02:51:51;;;;;;;5.20;4.25;;;;;;;10.17;92.92;101746.78;4984419;28;20100;-81
2023/09/02 02:54:16;;;;;;;5.07;4.35;;;;;;;10.15;92.84;101746.19;4987432;28;20503;-79
2023/09/02 02:56:42;;;;;;;6.32;4.05;;;;;;;10.13;93.00;101755.28;5003665;28;20550;-79
2023/09/02 02:59:08;;;;;;;5.22;4.40;;;;;;;10.20;94.99;101746.28;5001893;28;20090;-79
2023/09/02 03:01:33;;;;;;;5.60;4.95;;;;;;;10.22;95.65;101744.97;5003044;28;20065;-78
2023/09/02 03:04:00;;;;;;;5.93;4.93;;;;;;;10.23;95.52;101757.38;5000014;28;20068;-78
2023/09/02 03:06:26;;;;;;;6.90;5.07;;;;;;;10.19;94.89;101750.84;4987448;28;20058;-78
2023/09/02 03:08:51;;;;;;;7.10;5.10;;;;;;;10.14;94.20;101748.06;4999390;28;20526;-79
2023/09/02 03:11:17;;;;;;;7.60;4.82;;;;;;;10.13;94.50;101760.63;5001749;28;20197;-77
2023/09/02 03:13:43;;;;;;;5.50;4.47;;;;;;;10.14;94.79;101753.41;4971613;28;20029;-79
2023/09/02 03:16:14;;;;;;;5.53;4.68;;;;;;;10.19;95.54;101747.34;4985704;28;20038;-78
2023/09/02 03:18:41;;;;;;;5.00;4.15;;;;;;;10.22;96.04;101749.53;4986816;28;20120;-79
2023/09/02 03:21:07;;;;;;;4.95;4.07;;;;;;;10.23;95.73;101748.50;4998448;28;21274;-79
2023/09/02 03:23:35;;;;;;;4.60;3.88;;;;;;;10.21;95.55;101747.91;5002645;28;20038;-80
2023/09/02 03:26:12;;;;;;;5.13;3.83;;;;;;;10.19;95.19;101747.34;4970626;28;20049;-81
2023/09/02 03:28:40;;;;;;;5.35;3.78;;;;;;;10.17;94.67;101749.47;4982013;28;20030;-79
2023/09/02 03:31:07;;;;;;;3.97;3.58;;;;;;;10.21;95.09;101750.59;5003760;28;20044;-78
2023/09/02 03:33:33;;;;;;;3.72;2.92;;;;;;;10.18;95.01;101749.22;4984685;28;20041;-78
2023/09/02 03:36:02;;;;;;;;;;;;;;;10.13;94.80;101752.59;4972982;28;20029;-80
2023/09/02 03:38:28;;;;;;;6.25;3.88;;;;;;;10.09;94.45;101742.63;4987850;28;19930;-79
2023/09/02 03:40:56;;;;;;;5.45;4.38;;;;;;;10.04;94.55;101754.06;5000673;28;20068;-78
2023/09/02 03:43:22;;;;;;;7.93;4.88;;;;;;;10.02;94.51;101755.34;4988540;28;20042;-80
2023/09/02 03:45:49;;;;;;;6.63;5.43;;;;;;;9.98;94.49;101749.66;4987765;28;20066;-81
2023/09/02 03:48:18;;;;;;;5.75;4.22;;;;;;;9.94;94.54;101753.88;4980237;28;20133;-80
2023/09/02 03:50:59;;;;;;;6.75;4.70;;;;;;;9.88;94.22;101754.81;4985687;28;20050;-80
2023/09/02 03:53:25;;;;;;;7.32;4.45;;;;;;;9.84;93.91;101749.16;4984203;28;20081;-80
2023/09/02 03:55:51;;;;;;;7.65;5.28;;;;;;;9.83;94.44;101765.47;4998777;28;20124;-79
2023/09/02 03:58:17;;;;;;;6.50;4.68;;;;;;;9.84;94.35;101769.75;4974600;28;20034;-81
2023/09/02 04:00:43;;;;;;;8.38;5.60;;;;;;;9.80;94.51;101761.38;4970365;28;20083;-80
2023/09/02 04:03:09;;;;;;;6.30;4.53;;;;;;;9.81;94.10;101759.50;5003789;28;20476;-78
2023/09/02 04:05:35;;;;;;;6.68;5.40;;;;;;;9.81;94.20;101770.22;4986105;28;20076;-81
2023/09/02 04:08:01;;;;;;;6.97;5.75;;;;;;;9.82;94.44;101766.47;4986912;28;20677;-80
2023/09/02 04:10:26;;;;;;;9.13;5.13;;;;;;;9.83;94.15;101768.13;5004046;28;20041;-79
2023/09/02 04:12:52;;;;;;;7.07;5.45;;;;;;;9.83;94.66;101768.13;5004335;28;20541;-81
2023/09/02 04:15:18;;;;;;;7.82;5.25;;;;;;;9.87;94.88;101774.63;4982208;28;20034;-79
2023/09/02 04:17:44;;;;;;;;;;;;;;;9.89;95.37;101777.03;5004078;28;20402;-81
2023/09/02 04:20:10;;;;;;;8.02;4.75;;;;;;;9.83;95.32;101774.28;4968435;28;19922;-80
2023/09/02 04:22:36;;;;;;;7.20;5.30;;;;;;;9.83;95.23;101778.84;4987527;28;20453;-79
2023/09/02 04:25:02;;;;;;;6.57;4.93;;;;;;;9.85;95.36;101782.06;4987758;28;20038;-80
2023/09/02 04:27:28;;;;;;;;;;;;;;;9.87;95.49;101793.34;4999178;28;20030;-81
2023/09/02 04:29:54;;;;;;;5.38;4.03;;;;;;;9.85;95.03;101787.44;4987812;28;20424;-81
2023/09/02 04:32:20;;;;;;;7.32;4.18;;;;;;;9.87;95.27;101793.34;4986732;28;20056;-81
2023/09/02 04:34:47;;;;;;;8.55;5.13;;;;;;;9.87;95.24;101793.34;4999339;28;20038;-81
2023/09/02 04:37:13;;;;;;;7.95;4.90;;;;;;;9.88;95.30;101800.31;4989129;28;20038;-82
2023/09/02 04:39:40;;;;;;;5.55;4.38;;;;;;;9.92;95.86;101792.63;5003792;28;20037;-80
2023/09/02 04:42:07;;;;;;;8.43;4.43;;;;;;;9.93;96.10;101800.41;5017441;28;20128;-81
2023/09/02 04:44:33;;;;;;;5.80;4.35;;;;;;;9.96;96.56;101805.31;5014342;28;20125;-79
2023/09/02 04:46:59;;;;;;;5.53;4.88;;;;;;;9.97;96.94;101809.59;5003940;28;20509;-81
2023/09/02 04:49:25;;;;;;;;;;;;;;;10.00;96.85;101811.78;4977281;28;20046;-80
2023/09/02 04:51:50;;;;;;;7.07;4.18;;;;;;;9.98;96.47;101813.91;5002182;28;19921;-80
2023/09/02 04:54:17;;;;;;;6.47;3.20;;;;;;;9.97;95.95;101814.97;4998556;28;20049;-79
2023/09/02 04:56:44;;;;;;;3.85;3.42;;;;;;;9.99;95.91;101822.75;4985767;28;20034;-80
2023/09/02 04:59:09;;;;;;;2.75;2.38;;;;;;;10.00;95.89;101830.53;4986683;28;20478;-79
2023/09/02 05:01:36;;;;;;;3.40;2.80;;;;;;;10.02;95.98;101825.72;4986926;28;20061;-78
2023/09/02 05:04:02;;;;;;;3.80;3.40;;;;;;;10.04;96.05;101830.88;4987467;28;20049;-78
2023/09/02 05:06:28;;;;;;;;;;;;;;;10.08;96.40;101838.16;4971524;28;20092;-79
2023/09/02 05:08:56;;;;;;;3.72;3.33;;;;;;;10.11;97.19;101835.03;4985564;28;19925;-81
2023/09/02 05:11:29;;;;;;;4.70;3.58;;;;;;;10.16;97.19;101842.34;4986820;28;20022;-82
2023/09/02 05:13:54;;;;;;;3.45;3.13;;;;;;;10.21;97.62;101838.94;4988525;28;20053;-79
2023/09/02 05:16:20;;;;;;;4.25;3.40;;;;;;;10.23;97.53;101836.84;4988078;28;20053;-79
2023/09/02 05:18:46;;;;;;;3.50;3.08;;;;;;;10.27;97.84;101838.00;4988575;28;20034;-79
2023/09/02 05:21:11;;;;;;;4.35;3.65;;;;;;;10.31;97.95;101836.47;4969874;28;20133;-81
2023/09/02 05:23:37;;;;;;;4.57;4.10;;;;;;;10.34;98.12;101842.16;5002551;28;20034;-80
2023/09/02 05:26:03;;;;;;;3.40;2.88;;;;;;;10.37;98.25;101851.59;4995613;28;20046;-79
2023/09/02 05:28:29;;;;;;;3.95;3.40;;;;;;;10.40;98.03;101843.06;4990288;28;20042;-80
2023/09/02 05:30:56;;;;;;;4.20;3.80;;;;;;;10.43;97.89;101852.47;5008477;28;20038;-79
2023/09/02 05:33:22;;;;;;;4.38;3.88;;;;;;;10.45;97.94;101835.13;4995560;28;20087;-78
2023/09/02 05:35:48;;;;;;;4.35;3.65;;;;;;;10.48;98.14;101834.63;4988808;28;20113;-79
2023/09/02 05:38:14;;;;;;;4.40;3.92;;;;;;;10.51;98.00;101842.19;4978901;28;20057;-80
2023/09/02 05:40:41;;;;;;;4.50;3.55;;;;;;;10.54;97.57;101849.72;4970029;28;20052;-78
2023/09/02 05:43:06;;;;;;;4.57;4.00;;;;;;;10.57;97.46;101835.88;5006774;28;20041;-80
2023/09/02 05:45:32;;;;;;;4.22;3.67;;;;;;;10.60;97.75;101840.72;5001541;28;20031;-79
2023/09/02 05:48:00;;;;;;;4.03;3.38;;;;;;;10.64;97.80;101839.19;5007793;28;20033;-79
2023/09/02 05:50:26;;;;;;;5.28;4.13;;;;;;;10.72;97.60;101842.53;5005139;28;20029;-79
2023/09/02 05:52:52;;;;;;;4.25;3.63;;;;;;;10.76;97.69;101847.13;5007322;28;20054;-80
2023/09/02 05:55:18;;;;;;;5.28;4.38;;;;;;;10.83;98.12;101846.97;5000904;28;20105;-79
2023/09/02 05:57:43;;;;;;;5.57;4.10;;;;;;;10.93;98.45;101847.16;5008081;28;20045;-80
2023/09/02 06:00:10;;;;;;;5.35;4.70;;;;;;;11.03;98.86;101855.31;4997043;28;20034;-79
2023/09/02 06:02:38;;;;;;;7.05;4.97;;;;;;;11.16;99.30;101852.31;5003616;28;20033;-79
2023/09/02 06:05:04;;;;;;;6.28;4.40;;;;;;;11.25;99.28;101849.22;4996528;28;20115;-79
2023/09/02 06:07:30;;;;;;;6.68;4.95;;;;;;;11.35;99.17;101852.03;4988869;28;20037;-80
2023/09/02 06:09:55;;;;;;;7.38;5.28;;;;;;;11.52;99.71;101854.69;5005248;28;20037;-81
2023/09/02 06:12:22;;;;;;;8.77;6.10;;;;;;;11.67;99.91;101854.88;5002489;28;20037;-77
2023/09/02 06:14:48;;;;;;;10.48;6.28;;;;;;;11.81;100.00;101858.84;5005267;28;20129;-80
2023/09/02 06:17:13;;;;;;;9.07;6.55;;;;;;;11.92;100.00;101865.09;4982271;28;20030;-80
2023/09/02 06:19:39;;;;;;;9.05;6.20;;;;;;;12.04;100.00;101863.09;4990890;28;20056;-79
2023/09/02 06:22:05;;;;;;;12.82;7.13;;;;;;;12.17;100.00;101872.66;5003913;28;20037;-78
2023/09/02 06:24:30;;;;;;;10.63;7.25;;;;;;;12.30;99.82;101883.81;5004727;28;20034;-79
2023/09/02 06:27:03;;;;;;;9.82;7.25;;;;;;;12.39;99.29;101881.47;5004313;28;20057;-78
2023/09/02 06:29:28;;;;;;;;;;;;;;;12.44;98.81;101889.56;5002431;28;20077;-79
2023/09/02 06:31:53;;;;;;;8.50;5.20;;;;;;;12.54;98.65;101883.50;5001385;28;20376;-78
2023/09/02 06:34:22;;;;;;;10.07;6.25;;;;;;;12.67;98.53;101884.97;4988444;28;20046;-79
2023/09/02 06:36:48;;;;;;;9.32;6.22;;;;;;;12.78;98.38;101879.41;5005545;28;20040;-79
2023/09/02 06:39:14;;;;;;;9.18;6.88;;;;;;;12.85;98.07;101880.00;5008334;28;20030;-83
2023/09/02 06:41:39;;;;;;;8.20;6.05;;;;;;;12.95;98.03;101881.16;4992721;28;20503;-81
2023/09/02 06:44:09;;;;;;;8.35;5.32;;;;;;;13.06;96.96;101885.53;4991177;28;20041;-80
2023/09/02 06:46:37;;;;;;;8.52;6.00;;;;;;;13.15;96.32;101900.13;5011050;28;20042;-80
2023/09/02 06:49:05;;;;;;;7.32;5.43;;;;;;;13.26;95.79;101896.44;5000351;28;20022;-77
2023/09/02 06:51:31;;;;;;;9.05;5.80;;;;;;;13.32;95.07;101894.63;5002975;28;20037;-80
2023/09/02 06:53:57;;;;;;;11.68;6.10;;;;;;;13.41;94.75;101897.63;4999763;28;20049;-82
2023/09/02 06:56:23;;;;;;;9.63;6.18;;;;;;;13.53;94.85;101906.31;5006966;28;20041;-81
2023/09/02 06:58:49;;;;;;;7.60;5.97;;;;;;;13.62;94.69;101899.38;4991811;28;20042;-80
2023/09/02 07:01:23;;;;;;;8.45;5.57;;;;;;;13.76;94.70;101911.28;4992065;28;20056;-81
2023/09/02 07:03:50;;;;;;;8.75;5.90;;;;;;;13.85;94.16;101908.88;5010383;28;20057;-81
2023/09/02 07:06:16;;;;;;;7.15;5.10;;;;;;;13.97;94.28;101905.97;4991371;28;20499;-80
2023/09/02 07:08:43;;;;;;;9.82;6.38;;;;;;;14.06;94.19;101915.16;5004364;28;20034;-82
2023/09/02 07:11:11;;;;;;;10.10;6.68;;;;;;;14.14;93.42;101911.94;5007863;28;20053;-81
2023/09/02 07:13:37;;;;;;;8.05;5.85;;;;;;;14.26;93.46;101914.41;5006046;28;20109;-81
2023/09/02 07:16:05;;;;;;;8.98;5.47;;;;;;;14.38;93.74;101918.50;5007410;28;20403;-82
2023/09/02 07:18:31;;;;;;;8.60;5.72;;;;;;;14.46;92.50;101928.78;4975579;28;20042;-80
2023/09/02 07:21:01;;;;;;;;;;;;;;;14.53;92.04;101930.41;4989522;28;20044;-82
2023/09/02 07:23:28;;;;;;;8.32;5.38;;;;;;;14.63;92.33;101933.09;4996739;28;20020;-83
2023/09/02 07:25:59;;;;;;;8.40;6.30;;;;;;;14.72;91.88;101937.72;5001550;28;20084;-82
2023/09/02 07:28:26;;;;;;;10.65;7.00;;;;;;;14.88;92.26;101937.72;5006692;28;20030;-82
2023/09/02 07:30:52;;;;;;;8.45;6.03;;;;;;;14.99;91.78;101939.34;5000209;28;20793;-83
2023/09/02 07:33:17;;;;;;;;;;;;;;;15.13;91.90;101943.13;4991457;28;20041;-83
2023/09/02 07:35:43;;;;;;;9.13;5.90;;;;;;;15.26;91.89;101949.88;5007333;28;19984;-82
2023/09/02 07:38:08;;;;;;;;;;;;;;;15.40;91.71;101950.94;4976490;28;20044;-82
2023/09/02 07:40:34;;;;;;;6.43;4.90;;;;;;;15.51;91.40;101952.53;5002529;28;19914;-83
2023/09/02 07:43:00;;;;;;;;;;;;;;;15.63;91.81;101946.03;4992570;28;20507;-83
2023/09/02 07:45:26;;;;;;;5.65;4.50;;;;;;;15.72;90.50;101941.72;4982293;28;19923;-82
2023/09/02 07:47:53;;;;;;;;;;;;;;;15.86;89.77;101950.84;4986537;28;20038;-82
2023/09/02 07:50:21;;;;;;;8.32;4.88;;;;;;;15.98;88.25;101961.31;5003199;28;19918;-83
2023/09/02 07:52:47;;;;;;;6.28;4.70;;;;;;;16.10;88.12;101965.31;4987264;28;20129;-83
2023/09/02 07:55:13;;;;;;;5.88;3.95;;;;;;;16.17;86.81;101959.63;4984669;28;20045;-84
2023/09/02 07:57:39;;;;;;;;;;;;;;;16.25;86.53;101960.94;4992897;28;20033;-84
2023/09/02 08:00:05;;;;;;;5.45;3.33;;;;;;;16.36;87.08;101963.31;4988940;28;19922;-83
2023/09/02 08:02:38;;;;;;;4.57;2.72;;;;;;;16.50;86.66;101968.09;5001019;28;20038;-83
2023/09/02 08:05:05;;;;;;;;;;;;;;;16.57;87.43;101971.31;4988238;28;20030;-83
2023/09/02 08:07:31;;;;;;;3.90;2.50;;;;;;;16.62;85.70;101974.00;5005261;28;19964;-84
2023/09/02 08:09:57;;;;;;;4.03;2.58;;;;;;;16.74;87.85;101979.09;4986536;28;20064;-83
2023/09/02 08:12:22;;;;;;;;;;;;;;;16.76;86.28;101976.91;4989160;28;20516;-83
2023/09/02 08:14:48;;;;;;;5.60;2.33;;;;;;;16.85;86.21;101973.31;4972889;28;19918;-84
2023/09/02 08:17:14;;;;;;;5.88;2.53;;;;;;;16.83;83.43;101977.41;4985408;28;20030;-84
2023/09/02 08:19:39;;;;;;;;;;;;;;;16.93;83.20;101985.41;4990219;28;20034;-84
2023/09/02 08:22:05;;;;;;;3.35;1.83;;;;;;;17.02;84.31;101983.75;5001805;28;19924;-84
2023/09/02 08:24:31;;;;;;;2.55;1.75;;;;;;;17.15;82.67;101974.19;5003654;28;20772;-84
2023/09/02 08:26:57;;;;;;;3.65;1.73;;;;;;;17.34;82.38;101971.56;4985094;28;20057;-83
2023/09/02 08:29:23;;;;;;;2.47;1.52;;;;;;;17.45;82.28;101973.06;4984559;28;20483;-85
2023/09/02 08:31:53;;;;;;;4.10;2.15;;;;;;;17.51;80.57;101971.94;4981797;28;20042;-84
2023/09/02 08:34:19;;;;;;;3.38;2.17;;;;;;;17.60;81.68;101981.03;4989399;28;20453;-85
2023/09/02 08:36:44;;;;;;;5.82;2.58;;;;;;;17.63;79.70;101985.09;5003564;28;20038;-83
2023/09/02 08:39:10;;;;;;;6.90;2.55;;;;;;;17.73;79.90;101990.44;5003216;28;20041;-85
2023/09/02 08:41:38;;;;;;;6.53;3.60;;;;;;;17.69;78.46;101982.06;4987175;28;20048;-82
2023/09/02 08:44:04;;;;;;;9.63;3.10;;;;;;;17.79;77.99;101983.06;4984943;28;20503;-82
2023/09/02 08:46:32;;;;;;;4.72;2.83;;;;;;;17.98;78.09;101992.06;4998932;28;20035;-82
2023/09/02 08:49:00;;;;;;;4.28;2.50;;;;;;;18.08;78.17;101986.50;4997647;28;20042;-83
2023/09/02 08:51:27;;;;;;;5.10;2.88;;;;;;;18.10;78.00;101987.03;4988290;28;20128;-84
2023/09/02 08:53:55;;;;;;;4.45;2.72;;;;;;;18.13;79.67;101994.56;5004693;28;20084;-83
2023/09/02 08:56:22;;;;;;;4.45;2.60;;;;;;;18.13;79.61;101994.56;4983709;28;20038;-87
2023/09/02 08:58:48;;;;;;;4.45;2.50;;;;;;;18.08;78.11;101997.34;4986817;28;20034;-84
2023/09/02 09:01:18;;;;;;;3.67;2.25;;;;;;;17.99;76.97;101996.38;5007823;28;20034;-85
2023/09/02 09:03:55;;;;;;;5.85;1.90;;;;;;;17.91;77.69;102000.53;4987913;28;20080;-85
2023/09/02 09:06:24;;;;;;;2.55;1.63;;;;;;;17.95;75.84;102000.75;5009049;28;20033;-86
2023/09/02 09:08:54;;;;;;;3.53;2.00;;;;;;;18.07;74.64;101994.94;5004694;28;20034;-85
2023/09/02 09:11:22;;;;;;;2.55;1.48;;;;;;;18.11;75.27;101996.78;5009336;28;20038;-85
2023/09/02 09:13:50;;;;;;;3.88;1.70;;;;;;;18.03;76.11;101999.34;5009495;28;20034;-86
2023/09/02 09:16:26;;;;;;;4.00;2.22;;;;;;;18.07;75.70;101990.31;4976932;28;20042;-85
2023/09/02 09:18:52;;;;;;;3.45;2.00;;;;;;;18.14;75.04;101993.47;5005549;28;20030;-85
2023/09/02 09:21:18;;;;;;;5.00;2.40;;;;;;;18.33;72.76;101990.00;4992316;28;20156;-86
2023/09/02 09:23:43;;;;;;;4.25;1.90;;;;;;;18.42;73.79;101990.94;4993660;28;20120;-85
2023/09/02 09:26:11;;;;;;;4.63;2.17;;;;;;;18.52;72.62;101988.91;5003830;28;20033;-85
2023/09/02 09:28:55;;;;;;;3.40;1.80;;;;;;;18.65;70.72;101994.72;5010355;28;20109;-84
2023/09/02 09:31:22;;;;;;;3.92;1.77;;;;;;;18.73;70.85;101991.38;5008773;28;20430;-85
2023/09/02 09:33:53;;;;;;;4.50;1.92;;;;;;;18.78;70.20;101999.44;5010045;28;20101;-85
2023/09/02 09:36:23;;;;;;;3.58;1.77;;;;;;;19.01;70.02;101997.72;5007305;28;20246;-84
2023/09/02 09:38:53;;;;;;;3.60;1.90;;;;;;;19.07;68.62;102016.34;4973946;28;20173;-84
2023/09/02 09:41:18;;;;;;;3.25;1.85;;;;;;;19.16;69.36;102011.03;5002494;28;20038;-86
2023/09/02 09:43:45;;;;;;;2.85;1.80;;;;;;;19.34;68.43;102007.47;5009577;28;20030;-84
2023/09/02 09:46:15;;;;;;;3.30;2.08;;;;;;;19.48;67.50;102006.72;5000280;28;20034;-85
2023/09/02 09:48:46;;;;;;;3.75;1.63;;;;;;;19.64;68.17;102018.94;5007740;28;20534;-84
2023/09/02 09:51:22;;;;;;;3.45;2.10;;;;;;;19.76;66.01;102019.25;4987571;28;20045;-84
2023/09/02 09:53:50;;;;;;;2.75;1.45;;;;;;;19.76;65.48;102019.25;5008441;28;20041;-84
2023/09/02 09:56:15;;;;;;;2.88;1.70;;;;;;;19.58;66.43;102015.53;4993795;28;20034;-84
2023/09/02 09:58:41;;;;;;;4.38;1.90;;;;;;;19.43;68.22;102020.38;5004774;28;20117;-86
2023/09/02 10:01:09;;;;;;;3.78;2.20;;;;;;;19.39;68.46;102024.81;5004497;28;20050;-85
2023/09/02 10:03:35;;;;;;;4.32;1.60;;;;;;;19.29;69.33;102023.84;4994000;28;20040;-85
2023/09/02 10:06:01;;;;;;;3.35;1.52;;;;;;;19.23;69.80;102022.31;5002074;28;20042;-86
2023/09/02 10:08:27;;;;;;;5.78;2.13;;;;;;;19.32;68.29;102022.47;4990747;28;20040;-86
2023/09/02 10:10:53;;;;;;;2.75;1.70;;;;;;;19.32;65.79;102017.03;5002111;28;20037;-85
2023/09/02 10:13:20;;;;;;;3.40;1.85;;;;;;;19.36;65.85;102024.28;4993433;28;20038;-84
2023/09/02 10:15:46;;;;;;;3.17;1.30;;;;;;;19.56;65.77;102030.47;5011020;28;20120;-85
2023/09/02 10:18:15;;;;;;;3.75;1.70;;;;;;;19.67;63.69;102031.94;5007778;28;20169;-85
2023/09/02 10:20:42;;;;;;;2.78;1.58;;;;;;;19.67;64.40;102037.38;5006598;28;20038;-86
2023/09/02 10:23:09;;;;;;;3.28;1.33;;;;;;;19.78;63.22;102041.53;5008274;28;20034;-83
2023/09/02 10:26:03;;;;;;;1.80;1.20;;;;;;;19.92;58.14;102038.03;5009808;28;20034;-86
2023/09/02 10:28:40;;;;;;;2.33;1.17;;;;;;;20.10;60.21;102046.06;4989498;28;20045;-85
2023/09/02 10:31:19;;;;;;;2.10;1.38;;;;;;;20.21;62.14;102038.50;4975081;28;20038;-80
2023/09/02 10:33:49;;;;;;;3.13;1.13;;;;;;;20.26;65.42;102038.41;5007670;28;20034;-80
2023/09/02 10:36:21;;;;;;;3.83;1.73;;;;;;;20.33;65.14;102041.53;4994609;28;20026;-84
2023/09/02 10:38:49;;;;;;;3.72;1.40;;;;;;;20.31;62.26;102037.47;5006105;28;20034;-84
2023/09/02 10:41:16;;;;;;;3.05;1.42;;;;;;;20.40;65.99;102039.22;5005772;28;20042;-83
2023/09/02 10:43:44;;;;;;;2.28;1.30;;;;;;;20.49;62.87;102039.31;5005026;28;20034;-82
2023/09/02 10:46:11;;;;;;;3.10;1.70;;;;;;;20.53;61.78;102039.53;5005490;28;20106;-83
2023/09/02 10:48:41;;;;;;;2.33;1.27;;;;;;;20.58;61.08;102031.22;4977187;28;20029;-84
2023/09/02 10:51:07;;;;;;;2.13;1.50;;;;;;;20.67;59.47;102023.97;5003840;28;20101;-79
2023/09/02 10:53:51;;;;;;;2.60;1.42;;;;;;;20.71;59.82;102033.13;4990717;28;20514;-78
2023/09/02 10:56:27;;;;;;;1.70;1.08;;;;;;;20.79;54.24;102029.66;4971644;28;20046;-83
2023/09/02 10:58:53;;;;;;;3.10;1.08;;;;;;;20.95;55.98;102027.41;5005794;28;20057;-79
2023/09/02 11:01:20;;;;;;;1.88;1.25;;;;;;;21.01;58.99;102030.81;5003814;28;20046;-81
2023/09/02 11:03:53;;;;;;;2.22;1.17;;;;;;;21.13;59.89;102034.56;4968608;28;20041;-79
2023/09/02 11:06:19;;;;;;;2.13;1.30;;;;;;;21.29;57.97;102043.22;4971106;28;20061;-79
2023/09/02 11:08:52;;;;;;;2.40;1.30;;;;;;;21.41;58.14;102048.91;4986337;28;20038;-80
2023/09/02 11:11:19;;;;;;;2.35;1.55;;;;;;;21.45;57.22;102040.91;4984212;28;20499;-81
2023/09/02 11:14:06;;;;;;;4.55;1.73;;;;;;;21.47;55.88;102039.50;5006407;28;20044;-78
2023/09/02 11:16:38;;;;;;;2.75;1.33;;;;;;;21.52;55.30;102042.06;5004223;28;20092;-80
2023/09/02 11:19:08;;;;;;;1.92;0.93;;;;;;;21.59;51.93;102046.28;5002554;28;20080;-80
2023/09/02 11:21:42;;;;;;;2.00;1.10;;;;;;;21.64;52.59;102051.59;5001372;28;20487;-78
2023/09/02 11:24:17;;;;;;;1.33;0.80;;;;;;;21.70;50.98;102053.06;4988389;28;20056;-78
2023/09/02 11:26:57;;;;;;;1.73;1.00;;;;;;;21.69;49.40;102044.09;5004161;28;20038;-81
2023/09/02 11:29:24;;;;;;;1.77;1.20;;;;;;;21.51;50.74;102051.38;5005412;28;20037;-79
2023/09/02 11:31:56;;;;;;;1.73;0.90;;;;;;;21.49;56.62;102060.97;4987436;28;20128;-80